Time;durP1;ratioP1;P1;durP2;ratioP2;P2;SDS_P1;SDS_P2;PMS_P1;PMS_P2;Temp;Humidity;BMP_temperature;BMP_pressure;BME280_temperature;BME280_humidity;BME280_pressure;Samples;Min_cycle;Max_cycle;Signal;HPM_P1;HPM_P2
2024/03/08 00:00:18;;;;;;;1.85;1.73;;;;;;;;;;1049846;28;20069;-73
2024/03/08 00:00:48;;;;;;;1.80;1.70;;;;;;;;;;1049695;28;20036;-73
2024/03/08 00:01:19;;;;;;;2.88;2.70;;;;;;;;;;1050107;28;20103;-74
2024/03/08 00:01:49;;;;;;;1.90;1.67;;;;;;;;;;1050494;28;20506;-73
2024/03/08 00:02:19;;;;;;;0.77;0.68;;;;;;;;;;1050310;28;20111;-74
2024/03/08 00:02:54;;;;;;;1.75;1.63;;;;;;;;;;1050160;28;20441;-74
2024/03/08 00:03:24;;;;;;;1.13;1.05;;;;;;;;;;1048656;28;20975;-74
2024/03/08 00:03:55;;;;;;;0.77;0.77;;;;;;;;;;1047753;28;20123;-74
2024/03/08 00:04:25;;;;;;;1.70;1.38;;;;;;;;;;1047634;28;20020;-73
2024/03/08 00:04:56;;;;;;;0.73;0.73;;;;;;;;;;1047902;28;20060;-74
2024/03/08 00:05:27;;;;;;;0.95;0.95;;;;;;;;;;1050004;28;20512;-74
2024/03/08 00:05:58;;;;;;;1.63;1.52;;;;;;;;;;1050398;28;20016;-73
2024/03/08 00:06:28;;;;;;;1.90;1.80;;;;;;;;;;1050291;28;20024;-73
2024/03/08 00:06:59;;;;;;;1.02;1.02;;;;;;;;;;1049517;28;20038;-74
2024/03/08 00:07:29;;;;;;;0.47;0.47;;;;;;;;;;1049853;28;20029;-73
2024/03/08 00:08:00;;;;;;;5.68;2.35;;;;;;;;;;1049729;28;20418;-73
2024/03/08 00:08:30;;;;;;;0.90;0.90;;;;;;;;;;1047411;28;20082;-74
2024/03/08 00:09:01;;;;;;;1.63;1.52;;;;;;;;;;1047625;28;20075;-73
2024/03/08 00:09:31;;;;;;;2.13;1.98;;;;;;;;;;1043750;28;20036;-73
2024/03/08 00:10:07;;;;;;;1.95;1.40;;;;;;;;;;1045447;28;20025;-73
2024/03/08 00:10:38;;;;;;;0.85;0.85;;;;;;;;;;1043636;28;20438;-74
2024/03/08 00:11:09;;;;;;;2.15;1.95;;;;;;;;;;1046643;28;20029;-74
2024/03/08 00:11:39;;;;;;;1.55;1.45;;;;;;;;;;1050145;28;20024;-73
2024/03/08 00:12:10;;;;;;;3.25;2.22;;;;;;;;;;1049863;28;20411;-74
2024/03/08 00:12:44;;;;;;;1.85;1.75;;;;;;;;;;1049823;28;20119;-74
2024/03/08 00:13:15;;;;;;;0.90;0.90;;;;;;;;;;1049833;28;20487;-74
2024/03/08 00:13:46;;;;;;;22.83;3.45;;;;;;;;;;1050899;28;20020;-73
2024/03/08 00:14:17;;;;;;;0.30;0.30;;;;;;;;;;1049904;28;20024;-74
2024/03/08 00:14:47;;;;;;;0.40;0.40;;;;;;;;;;1048552;28;20024;-73
2024/03/08 00:15:18;;;;;;;1.80;1.70;;;;;;;;;;1049453;28;20024;-74
2024/03/08 00:15:48;;;;;;;2.28;2.08;;;;;;;;;;1049742;28;20392;-74
2024/03/08 00:16:19;;;;;;;5.60;2.78;;;;;;;;;;1049892;28;20051;-74
2024/03/08 00:16:50;;;;;;;0.63;0.63;;;;;;;;;;1050050;28;20024;-74
2024/03/08 00:17:22;;;;;;;2.17;0.95;;;;;;;;;;1049775;28;20020;-73
2024/03/08 00:17:53;;;;;;;0.52;0.52;;;;;;;;;;1045494;28;20059;-74
2024/03/08 00:18:24;;;;;;;2.20;2.08;;;;;;;;;;1048877;28;20020;-73
2024/03/08 00:18:54;;;;;;;3.35;3.05;;;;;;;;;;1050292;28;20051;-73
2024/03/08 00:19:25;;;;;;;2.53;2.33;;;;;;;;;;1049672;28;20024;-73
2024/03/08 00:19:55;;;;;;;0.88;0.88;;;;;;;;;;1049690;28;20411;-74
2024/03/08 00:20:26;;;;;;;2.60;2.05;;;;;;;;;;1049421;28;20029;-74
2024/03/08 00:20:56;;;;;;;0.98;0.98;;;;;;;;;;1049897;28;20093;-73
2024/03/08 00:21:27;;;;;;;2.60;1.10;;;;;;;;;;1049553;28;20062;-73
2024/03/08 00:21:57;;;;;;;1.88;1.77;;;;;;;;;;1048838;28;20020;-73
2024/03/08 00:22:30;;;;;;;1.17;1.08;;;;;;;;;;1047649;28;20029;-73
2024/03/08 00:23:01;;;;;;;2.17;2.08;;;;;;;;;;1045768;28;20500;-74
2024/03/08 00:23:33;;;;;;;8.23;1.42;;;;;;;;;;1043986;28;20056;-74
2024/03/08 00:24:04;;;;;;;0.77;0.73;;;;;;;;;;1043735;28;20024;-74
2024/03/08 00:24:34;;;;;;;1.02;0.93;;;;;;;;;;1045955;28;20438;-74
2024/03/08 00:25:05;;;;;;;1.45;1.27;;;;;;;;;;1044209;28;20025;-74
2024/03/08 00:25:36;;;;;;;11.75;2.28;;;;;;;;;;1049245;28;20450;-74
2024/03/08 00:26:06;;;;;;;2.55;1.77;;;;;;;;;;1048744;28;20027;-74
2024/03/08 00:26:37;;;;;;;2.45;1.75;;;;;;;;;;1049843;28;20027;-73
2024/03/08 00:27:08;;;;;;;0.25;0.25;;;;;;;;;;1049921;28;20029;-74
2024/03/08 00:27:39;;;;;;;0.68;0.68;;;;;;;;;;1048698;28;20020;-73
2024/03/08 00:28:13;;;;;;;1.63;1.52;;;;;;;;;;1049507;28;20016;-74
2024/03/08 00:28:43;;;;;;;1.55;1.45;;;;;;;;;;1049478;28;20036;-74
2024/03/08 00:29:14;;;;;;;1.55;1.30;;;;;;;;;;1048581;28;20097;-74
2024/03/08 00:29:45;;;;;;;0.82;0.77;;;;;;;;;;1050241;28;20490;-74
2024/03/08 00:30:15;;;;;;;7.65;2.25;;;;;;;;;;1049834;28;20028;-73
2024/03/08 00:30:46;;;;;;;0.95;0.80;;;;;;;;;;1049942;28;20023;-73
2024/03/08 00:31:17;;;;;;;0.95;0.95;;;;;;;;;;1049677;28;20070;-74
2024/03/08 00:31:47;;;;;;;0.60;0.60;;;;;;;;;;1049635;28;20059;-74
2024/03/08 00:32:18;;;;;;;0.85;0.85;;;;;;;;;;1049470;28;20050;-74
2024/03/08 00:32:48;;;;;;;0.35;0.35;;;;;;;;;;1050315;28;20029;-74
2024/03/08 00:33:19;;;;;;;4.20;3.30;;;;;;;;;;1049093;28;20123;-74
2024/03/08 00:33:49;;;;;;;0.90;0.90;;;;;;;;;;1050673;28;20016;-74
2024/03/08 00:34:20;;;;;;;0.70;0.55;;;;;;;;;;1048881;28;20542;-73
2024/03/08 00:34:54;;;;;;;3.38;3.08;;;;;;;;;;1049417;28;20024;-74
2024/03/08 00:35:24;;;;;;;0.70;0.60;;;;;;;;;;1048799;28;20036;-74
2024/03/08 00:35:55;;;;;;;0.60;0.60;;;;;;;;;;1050201;28;20027;-73
2024/03/08 00:36:26;;;;;;;7.82;2.08;;;;;;;;;;1046655;28;20021;-73
2024/03/08 00:36:56;;;;;;;2.15;2.05;;;;;;;;;;1046705;28;20105;-73
2024/03/08 00:37:27;;;;;;;1.23;1.17;;;;;;;;;;1049517;28;20027;-74
2024/03/08 00:37:57;;;;;;;2.40;2.28;;;;;;;;;;1049489;28;20028;-73
2024/03/08 00:38:28;;;;;;;2.08;1.73;;;;;;;;;;1049892;28;20051;-73
2024/03/08 00:39:00;;;;;;;1.35;1.15;;;;;;;;;;1051015;28;20018;-73
2024/03/08 00:39:31;;;;;;;2.28;2.08;;;;;;;;;;1051117;28;20078;-73
2024/03/08 00:40:01;;;;;;;1.38;1.27;;;;;;;;;;1051096;28;20074;-73
2024/03/08 00:40:32;;;;;;;2.00;1.88;;;;;;;;;;1050525;28;20113;-73
2024/03/08 00:41:02;;;;;;;0.50;0.50;;;;;;;;;;1050212;28;20015;-74
2024/03/08 00:41:33;;;;;;;4.70;3.33;;;;;;;;;;1050403;28;20115;-73
2024/03/08 00:42:03;;;;;;;0.45;0.45;;;;;;;;;;1050306;28;20048;-73
2024/03/08 00:42:34;;;;;;;0.82;0.55;;;;;;;;;;1050512;28;20028;-73
2024/03/08 00:43:05;;;;;;;1.27;1.17;;;;;;;;;;1050633;28;20407;-74
2024/03/08 00:43:35;;;;;;;6.22;2.53;;;;;;;;;;1050781;28;20027;-73
2024/03/08 00:44:06;;;;;;;2.22;2.05;;;;;;;;;;1050525;28;20115;-73
2024/03/08 00:44:36;;;;;;;1.05;1.02;;;;;;;;;;1050616;28;20023;-74
2024/03/08 00:45:07;;;;;;;2.92;2.47;;;;;;;;;;1050816;28;20612;-74
2024/03/08 00:45:38;;;;;;;3.28;2.13;;;;;;;;;;1051185;28;20036;-73
2024/03/08 00:46:08;;;;;;;3.38;1.92;;;;;;;;;;1051052;28;20031;-73
2024/03/08 00:46:39;;;;;;;1.20;1.13;;;;;;;;;;1050878;28;20023;-74
2024/03/08 00:47:09;;;;;;;2.35;2.15;;;;;;;;;;1050158;28;20185;-74
2024/03/08 00:47:42;;;;;;;0.55;0.55;;;;;;;;;;1048431;28;20024;-73
2024/03/08 00:48:12;;;;;;;1.33;1.23;;;;;;;;;;1048450;28;20025;-73
2024/03/08 00:48:43;;;;;;;1.40;1.15;;;;;;;;;;1048469;28;20480;-73
2024/03/08 00:49:13;;;;;;;2.15;2.05;;;;;;;;;;1050629;28;20033;-73
2024/03/08 00:49:44;;;;;;;1.35;1.25;;;;;;;;;;1049606;28;20024;-73
2024/03/08 00:50:14;;;;;;;2.00;1.80;;;;;;;;;;1050662;28;20055;-74
2024/03/08 00:50:48;;;;;;;1.10;1.10;;;;;;;;;;1050710;28;20503;-74
2024/03/08 00:51:18;;;;;;;1.30;1.27;;;;;;;;;;1050548;28;20065;-74
2024/03/08 00:51:48;;;;;;;2.40;1.77;;;;;;;;;;1049959;28;20024;-74
2024/03/08 00:52:19;;;;;;;2.30;1.95;;;;;;;;;;1050769;28;20016;-74
2024/03/08 00:52:50;;;;;;;4.22;3.40;;;;;;;;;;1050629;28;20119;-74
2024/03/08 00:53:20;;;;;;;1.13;1.13;;;;;;;;;;1050393;28;20029;-74
2024/03/08 00:53:51;;;;;;;4.22;2.50;;;;;;;;;;1050908;28;20031;-74
2024/03/08 00:54:21;;;;;;;4.05;3.50;;;;;;;;;;1050957;28;20029;-74
2024/03/08 00:54:52;;;;;;;0.70;0.70;;;;;;;;;;1051165;28;20419;-73
2024/03/08 00:55:22;;;;;;;6.40;1.92;;;;;;;;;;1050184;28;20020;-73
2024/03/08 00:55:54;;;;;;;4.43;1.88;;;;;;;;;;1050450;28;20052;-74
2024/03/08 00:56:25;;;;;;;1.75;1.65;;;;;;;;;;1050094;28;20028;-74
2024/03/08 00:56:55;;;;;;;12.38;2.35;;;;;;;;;;1050514;28;20048;-74
2024/03/08 00:57:26;;;;;;;2.95;1.60;;;;;;;;;;1050946;28;20028;-73
2024/03/08 00:57:56;;;;;;;7.82;2.97;;;;;;;;;;1051185;28;20016;-73
2024/03/08 00:58:28;;;;;;;2.67;2.47;;;;;;;;;;1050578;28;20054;-73
2024/03/08 00:58:59;;;;;;;0.70;0.70;;;;;;;;;;1048403;28;20027;-74
2024/03/08 00:59:32;;;;;;;0.98;0.93;;;;;;;;;;1051078;28;20028;-74
2024/03/08 01:00:03;;;;;;;3.80;3.47;;;;;;;;;;1050035;28;20112;-74
2024/03/08 01:00:34;;;;;;;1.25;1.25;;;;;;;;;;1050049;28;20133;-74
2024/03/08 01:01:04;;;;;;;0.57;0.57;;;;;;;;;;1050511;28;20017;-74
2024/03/08 01:01:35;;;;;;;2.13;1.98;;;;;;;;;;1050797;28;20492;-74
2024/03/08 01:02:05;;;;;;;2.40;1.00;;;;;;;;;;1050968;28;20051;-74
2024/03/08 01:02:36;;;;;;;1.75;1.65;;;;;;;;;;1050768;28;20042;-74
2024/03/08 01:03:07;;;;;;;2.85;2.65;;;;;;;;;;1050022;28;20502;-74
2024/03/08 01:03:37;;;;;;;0.20;0.20;;;;;;;;;;1050391;28;20441;-74
2024/03/08 01:04:07;;;;;;;8.32;3.67;;;;;;;;;;1048280;28;20492;-74
2024/03/08 01:04:38;;;;;;;11.20;2.08;;;;;;;;;;1048327;28;20020;-74
2024/03/08 01:05:09;;;;;;;1.45;1.35;;;;;;;;;;1050617;28;20020;-74
2024/03/08 01:05:39;;;;;;;4.93;1.70;;;;;;;;;;1050458;28;20487;-74
2024/03/08 01:06:11;;;;;;;1.98;1.85;;;;;;;;;;1050431;28;20149;-73
2024/03/08 01:06:45;;;;;;;2.72;2.53;;;;;;;;;;1050021;28;20024;-74
2024/03/08 01:07:16;;;;;;;4.10;3.80;;;;;;;;;;1050748;28;20020;-74
2024/03/08 01:07:46;;;;;;;2.88;2.45;;;;;;;;;;1051082;28;20023;-74
2024/03/08 01:08:17;;;;;;;0.32;0.32;;;;;;;;;;1050630;28;20666;-74
2024/03/08 01:08:47;;;;;;;0.57;0.57;;;;;;;;;;1050032;28;20051;-74
2024/03/08 01:09:18;;;;;;;2.92;1.08;;;;;;;;;;1050148;28;20447;-74
2024/03/08 01:09:48;;;;;;;0.55;0.55;;;;;;;;;;1049380;28;20027;-74
2024/03/08 01:10:19;;;;;;;3.47;1.80;;;;;;;;;;1050086;28;20028;-74
2024/03/08 01:10:52;;;;;;;5.38;3.85;;;;;;;;;;1050635;28;20020;-73
2024/03/08 01:11:22;;;;;;;5.55;0.98;;;;;;;;;;1049588;28;20019;-74
2024/03/08 01:11:56;;;;;;;2.85;1.88;;;;;;;;;;1049669;28;20027;-74
2024/03/08 01:12:26;;;;;;;0.25;0.25;;;;;;;;;;1050226;28;20024;-73
2024/03/08 01:12:59;;;;;;;21.50;2.67;;;;;;;;;;1050194;28;20103;-73
2024/03/08 01:13:29;;;;;;;3.92;1.52;;;;;;;;;;1050486;28;20062;-74
2024/03/08 01:14:01;;;;;;;1.65;1.55;;;;;;;;;;1050334;28;20396;-74
2024/03/08 01:14:31;;;;;;;1.67;1.58;;;;;;;;;;1050645;28;20068;-74
2024/03/08 01:15:02;;;;;;;1.90;1.85;;;;;;;;;;1050561;28;20093;-73
2024/03/08 01:15:32;;;;;;;2.85;2.60;;;;;;;;;;1050630;28;20058;-74
2024/03/08 01:16:03;;;;;;;13.40;4.30;;;;;;;;;;1050441;28;20023;-73
2024/03/08 01:16:33;;;;;;;1.02;1.02;;;;;;;;;;1050511;28;20040;-73
2024/03/08 01:17:04;;;;;;;2.55;2.35;;;;;;;;;;1050185;28;20507;-74
2024/03/08 01:17:34;;;;;;;2.75;2.50;;;;;;;;;;1051405;28;20027;-74
2024/03/08 01:18:05;;;;;;;5.47;1.95;;;;;;;;;;1050112;28;20017;-74
2024/03/08 01:18:36;;;;;;;3.05;2.22;;;;;;;;;;1050452;28;20034;-73
2024/03/08 01:19:07;;;;;;;1.13;1.13;;;;;;;;;;1050769;28;20029;-74
2024/03/08 01:19:37;;;;;;;2.13;0.98;;;;;;;;;;1051052;28;20379;-73
2024/03/08 01:20:10;;;;;;;0.80;0.80;;;;;;;;;;1050859;28;20508;-74
2024/03/08 01:20:41;;;;;;;3.00;2.03;;;;;;;;;;1049968;28;20073;-73
2024/03/08 01:21:11;;;;;;;2.20;2.00;;;;;;;;;;1050362;28;20073;-74
2024/03/08 01:21:42;;;;;;;2.47;1.52;;;;;;;;;;1050088;28;20035;-73
2024/03/08 01:22:12;;;;;;;2.42;2.25;;;;;;;;;;1050976;28;20024;-73
2024/03/08 01:22:43;;;;;;;2.00;1.60;;;;;;;;;;1049477;28;20051;-74
2024/03/08 01:23:14;;;;;;;1.60;1.50;;;;;;;;;;1050358;28;20115;-73
2024/03/08 01:23:44;;;;;;;0.35;0.35;;;;;;;;;;1050630;28;20028;-74
2024/03/08 01:24:15;;;;;;;2.63;2.42;;;;;;;;;;1049307;28;20052;-73
2024/03/08 01:24:45;;;;;;;1.15;1.15;;;;;;;;;;1050457;28;20420;-74
2024/03/08 01:25:15;;;;;;;3.78;3.58;;;;;;;;;;1049629;28;20048;-73
2024/03/08 01:25:47;;;;;;;1.17;1.10;;;;;;;;;;1050600;28;20024;-74
2024/03/08 01:26:17;;;;;;;1.33;1.23;;;;;;;;;;1050539;28;20166;-74
2024/03/08 01:26:48;;;;;;;1.25;1.08;;;;;;;;;;1049492;28;20084;-73
2024/03/08 01:27:19;;;;;;;12.95;2.13;;;;;;;;;;1049850;28;20020;-74
2024/03/08 01:27:49;;;;;;;2.60;2.28;;;;;;;;;;1050471;28;20107;-74
2024/03/08 01:28:20;;;;;;;1.60;1.50;;;;;;;;;;1050522;28;20032;-74
2024/03/08 01:28:50;;;;;;;0.73;0.73;;;;;;;;;;1047833;28;20069;-74
2024/03/08 01:29:21;;;;;;;7.32;2.75;;;;;;;;;;1048562;28;20042;-73
2024/03/08 01:29:51;;;;;;;2.63;1.52;;;;;;;;;;1049233;28;20020;-74
2024/03/08 01:30:23;;;;;;;0.32;0.32;;;;;;;;;;1049930;28;20140;-74
2024/03/08 01:30:56;;;;;;;1.23;1.13;;;;;;;;;;1049657;28;20036;-74
2024/03/08 01:31:28;;;;;;;0.38;0.38;;;;;;;;;;1050689;28;20048;-74
2024/03/08 01:32:01;;;;;;;4.13;3.55;;;;;;;;;;1050834;28;20020;-73
2024/03/08 01:32:32;;;;;;;0.90;0.90;;;;;;;;;;1049510;28;20043;-73
2024/03/08 01:33:02;;;;;;;5.88;2.85;;;;;;;;;;1050013;28;20063;-74
2024/03/08 01:33:33;;;;;;;0.98;0.98;;;;;;;;;;1050282;28;20098;-74
2024/03/08 01:34:03;;;;;;;1.40;1.30;;;;;;;;;;1050309;28;20052;-74
2024/03/08 01:34:34;;;;;;;2.45;2.25;;;;;;;;;;1050900;28;20446;-73
2024/03/08 01:35:04;;;;;;;4.20;2.03;;;;;;;;;;1050651;28;20024;-73
2024/03/08 01:35:35;;;;;;;0.38;0.38;;;;;;;;;;1050806;28;20016;-74
2024/03/08 01:36:06;;;;;;;2.53;2.42;;;;;;;;;;1050304;28;20031;-74
2024/03/08 01:36:37;;;;;;;1.27;1.17;;;;;;;;;;1050572;28;20020;-74
2024/03/08 01:37:07;;;;;;;0.98;0.95;;;;;;;;;;1050143;28;20035;-74
2024/03/08 01:37:38;;;;;;;2.67;2.47;;;;;;;;;;1049505;28;20472;-74
2024/03/08 01:38:08;;;;;;;4.57;1.25;;;;;;;;;;1050524;28;20070;-74
2024/03/08 01:38:39;;;;;;;1.65;1.55;;;;;;;;;;1047824;28;20044;-74
2024/03/08 01:39:09;;;;;;;1.48;1.15;;;;;;;;;;1050456;28;20027;-73
2024/03/08 01:39:40;;;;;;;6.25;2.30;;;;;;;;;;1049142;28;20465;-73
2024/03/08 01:40:10;;;;;;;3.33;1.35;;;;;;;;;;1048207;28;20016;-73
2024/03/08 01:40:41;;;;;;;1.63;1.45;;;;;;;;;;1049966;28;20504;-73
2024/03/08 01:41:13;;;;;;;8.35;2.20;;;;;;;;;;1048989;28;20024;-74
2024/03/08 01:41:44;;;;;;;4.05;1.42;;;;;;;;;;1048477;28;20423;-74
2024/03/08 01:42:17;;;;;;;2.75;2.40;;;;;;;;;;1050044;28;20039;-74
2024/03/08 01:42:47;;;;;;;1.77;1.55;;;;;;;;;;1049959;28;20134;-73
2024/03/08 01:43:18;;;;;;;5.57;3.83;;;;;;;;;;1050014;28;20458;-74
2024/03/08 01:43:50;;;;;;;2.47;2.25;;;;;;;;;;1049557;28;20028;-73
2024/03/08 01:44:20;;;;;;;4.43;2.22;;;;;;;;;;1050239;28;20028;-74
2024/03/08 01:44:51;;;;;;;1.50;1.40;;;;;;;;;;1049983;28;20442;-73
2024/03/08 01:45:21;;;;;;;2.78;2.58;;;;;;;;;;1050227;28;20017;-73
2024/03/08 01:45:52;;;;;;;0.60;0.60;;;;;;;;;;1048156;28;20033;-74
2024/03/08 01:46:23;;;;;;;0.80;0.60;;;;;;;;;;1048137;28;20063;-74
2024/03/08 01:46:54;;;;;;;0.52;0.52;;;;;;;;;;1050473;28;20039;-73
2024/03/08 01:47:25;;;;;;;3.08;2.17;;;;;;;;;;1049872;28;20054;-73
2024/03/08 01:47:55;;;;;;;1.33;1.25;;;;;;;;;;1050532;28;20461;-74
2024/03/08 01:48:27;;;;;;;2.70;2.00;;;;;;;;;;1050534;28;20044;-74
2024/03/08 01:48:58;;;;;;;2.05;1.20;;;;;;;;;;1050013;28;20419;-74
2024/03/08 01:49:29;;;;;;;1.13;1.13;;;;;;;;;;1049950;28;20017;-73
2024/03/08 01:50:01;;;;;;;2.25;2.15;;;;;;;;;;1045159;28;20470;-74
2024/03/08 01:50:32;;;;;;;0.88;0.73;;;;;;;;;;1043259;28;20024;-73
2024/03/08 01:51:02;;;;;;;0.43;0.43;;;;;;;;;;1044674;28;20032;-75
2024/03/08 01:51:33;;;;;;;2.92;2.65;;;;;;;;;;1046181;28;20389;-74
2024/03/08 01:52:03;;;;;;;0.73;0.73;;;;;;;;;;1049213;28;20115;-74
2024/03/08 01:52:34;;;;;;;1.30;1.20;;;;;;;;;;1051591;28;20020;-74
2024/03/08 01:53:06;;;;;;;0.40;0.40;;;;;;;;;;1050206;28;20062;-74
2024/03/08 01:53:37;;;;;;;2.45;2.25;;;;;;;;;;1050479;28;20024;-73
2024/03/08 01:54:12;;;;;;;1.42;1.33;;;;;;;;;;1050532;28;20048;-73
2024/03/08 01:54:43;;;;;;;1.52;1.42;;;;;;;;;;1050199;28;20063;-74
2024/03/08 01:55:14;;;;;;;2.63;2.42;;;;;;;;;;1050409;28;20384;-73
2024/03/08 01:55:46;;;;;;;0.85;0.85;;;;;;;;;;1050456;28;20145;-73
2024/03/08 01:56:18;;;;;;;1.02;0.73;;;;;;;;;;1050311;28;20020;-73
2024/03/08 01:56:48;;;;;;;4.18;1.95;;;;;;;;;;1050435;28;20063;-74
2024/03/08 01:57:19;;;;;;;1.98;1.88;;;;;;;;;;1051381;28;20016;-74
2024/03/08 01:57:49;;;;;;;1.48;1.38;;;;;;;;;;1049531;28;20028;-74
2024/03/08 01:58:21;;;;;;;2.22;1.33;;;;;;;;;;1047396;28;20017;-73
2024/03/08 01:58:52;;;;;;;0.55;0.55;;;;;;;;;;1048185;28;20024;-73
2024/03/08 01:59:23;;;;;;;1.85;1.75;;;;;;;;;;1042617;28;20028;-73
2024/03/08 01:59:55;;;;;;;2.45;2.30;;;;;;;;;;1048333;28;20107;-73
2024/03/08 02:00:26;;;;;;;1.35;1.25;;;;;;;;;;1045586;28;20021;-73
2024/03/08 02:00:57;;;;;;;1.75;1.63;;;;;;;;;;1046516;28;20029;-74
2024/03/08 02:01:28;;;;;;;4.43;3.03;;;;;;;;;;1048978;28;20016;-74
2024/03/08 02:02:01;;;;;;;1.50;1.40;;;;;;;;;;1050028;28;20016;-74
2024/03/08 02:02:32;;;;;;;2.97;1.30;;;;;;;;;;1050358;28;20028;-74
2024/03/08 02:03:03;;;;;;;2.55;2.13;;;;;;;;;;1050196;28;20110;-73
2024/03/08 02:03:34;;;;;;;2.78;2.33;;;;;;;;;;1050901;28;20020;-73
2024/03/08 02:04:07;;;;;;;8.50;3.15;;;;;;;;;;1050605;28;20115;-74
2024/03/08 02:04:38;;;;;;;4.43;2.33;;;;;;;;;;1050775;28;20037;-74
2024/03/08 02:05:09;;;;;;;4.10;1.45;;;;;;;;;;1050651;28;20471;-74
2024/03/08 02:05:40;;;;;;;2.03;1.80;;;;;;;;;;1050587;28;20024;-74
2024/03/08 02:06:16;;;;;;;3.45;3.15;;;;;;;;;;1050270;28;20445;-74
2024/03/08 02:06:48;;;;;;;4.47;3.13;;;;;;;;;;1049008;28;20020;-73
2024/03/08 02:07:18;;;;;;;5.47;3.85;;;;;;;;;;1050297;28;20038;-74
2024/03/08 02:07:49;;;;;;;8.60;4.22;;;;;;;;;;1050365;28;20523;-73
2024/03/08 02:08:22;;;;;;;3.85;3.13;;;;;;;;;;1050121;28;20115;-73
2024/03/08 02:08:53;;;;;;;6.63;2.75;;;;;;;;;;1049814;28;20031;-74
2024/03/08 02:09:24;;;;;;;6.97;3.58;;;;;;;;;;1050099;28;20012;-74
2024/03/08 02:09:55;;;;;;;5.65;2.08;;;;;;;;;;1050584;28;20025;-74
2024/03/08 02:10:25;;;;;;;7.10;3.33;;;;;;;;;;1050353;28;20511;-75
2024/03/08 02:10:56;;;;;;;12.88;5.50;;;;;;;;;;1050706;28;20020;-74
2024/03/08 02:11:26;;;;;;;6.25;3.15;;;;;;;;;;1049718;28;20012;-75
2024/03/08 02:11:57;;;;;;;7.35;4.32;;;;;;;;;;1050077;28;20012;-74
2024/03/08 02:12:28;;;;;;;7.55;3.13;;;;;;;;;;1048114;28;20464;-74
2024/03/08 02:12:59;;;;;;;6.55;3.25;;;;;;;;;;1043835;28;20021;-74
2024/03/08 02:13:29;;;;;;;6.65;3.28;;;;;;;;;;1047662;28;20508;-74
2024/03/08 02:14:00;;;;;;;5.95;5.28;;;;;;;;;;1048273;28;20024;-74
2024/03/08 02:14:31;;;;;;;14.60;4.50;;;;;;;;;;1049908;28;20421;-75
2024/03/08 02:15:01;;;;;;;4.18;1.77;;;;;;;;;;1050166;28;20043;-75
2024/03/08 02:15:50;;;;;;;5.72;2.35;;;;;;;;;;1050116;28;20013;-74
2024/03/08 02:16:24;;;;;;;2.85;2.47;;;;;;;;;;1046076;28;20028;-73
2024/03/08 02:16:57;;;;;;;3.90;3.53;;;;;;;;;;1042174;28;20063;-74
2024/03/08 02:17:28;;;;;;;3.42;1.65;;;;;;;;;;1045520;28;20031;-74
2024/03/08 02:17:59;;;;;;;2.05;1.95;;;;;;;;;;1048446;28;20032;-74
2024/03/08 02:18:30;;;;;;;7.68;1.85;;;;;;;;;;1050630;28;20053;-75
2024/03/08 02:19:00;;;;;;;2.13;1.20;;;;;;;;;;1050304;28;20016;-74
2024/03/08 02:19:32;;;;;;;1.70;0.80;;;;;;;;;;1050773;28;20029;-74
2024/03/08 02:20:03;;;;;;;4.82;2.78;;;;;;;;;;1050643;28;20024;-74
2024/03/08 02:20:34;;;;;;;3.53;2.58;;;;;;;;;;1050215;28;20082;-75
2024/03/08 02:21:05;;;;;;;3.15;2.95;;;;;;;;;;1047059;28;20412;-74
2024/03/08 02:21:36;;;;;;;3.88;3.35;;;;;;;;;;1047695;28;20108;-74
2024/03/08 02:22:07;;;;;;;0.80;0.75;;;;;;;;;;1047936;28;20055;-74
2024/03/08 02:22:38;;;;;;;2.05;1.85;;;;;;;;;;1045912;28;20027;-74
2024/03/08 02:23:09;;;;;;;3.85;3.55;;;;;;;;;;1047901;28;20043;-74
2024/03/08 02:23:40;;;;;;;0.60;0.60;;;;;;;;;;1048097;28;20024;-74
2024/03/08 02:24:10;;;;;;;7.72;3.92;;;;;;;;;;1048164;28;20024;-74
2024/03/08 02:24:41;;;;;;;4.70;2.38;;;;;;;;;;1048050;28;20120;-74
2024/03/08 02:25:11;;;;;;;2.15;1.63;;;;;;;;;;1048994;28;20016;-74
2024/03/08 02:25:42;;;;;;;2.90;2.63;;;;;;;;;;1050398;28;20138;-74
2024/03/08 02:26:12;;;;;;;7.53;2.58;;;;;;;;;;1050360;28;20602;-74
2024/03/08 02:26:43;;;;;;;13.32;4.38;;;;;;;;;;1050673;28;20016;-74
2024/03/08 02:27:13;;;;;;;3.00;2.10;;;;;;;;;;1049079;28;20027;-74
2024/03/08 02:27:43;;;;;;;2.00;1.73;;;;;;;;;;1050408;28;20023;-74
2024/03/08 02:28:14;;;;;;;3.38;3.00;;;;;;;;;;1050303;28;20036;-74
2024/03/08 02:28:45;;;;;;;6.95;4.97;;;;;;;;;;1048720;28;20020;-74
2024/03/08 02:29:15;;;;;;;14.88;2.67;;;;;;;;;;1046967;28;20020;-74
2024/03/08 02:29:46;;;;;;;5.78;2.50;;;;;;;;;;1043974;28;20021;-74
2024/03/08 02:30:17;;;;;;;3.60;2.30;;;;;;;;;;1043918;28;20609;-74
2024/03/08 02:30:48;;;;;;;4.70;2.85;;;;;;;;;;1045205;28;20025;-75
2024/03/08 02:31:18;;;;;;;8.65;3.25;;;;;;;;;;1045512;28;20017;-74
2024/03/08 02:31:51;;;;;;;4.20;2.83;;;;;;;;;;1050405;28;20020;-74
2024/03/08 02:32:22;;;;;;;4.38;2.67;;;;;;;;;;1050846;28;20047;-74
2024/03/08 02:32:52;;;;;;;4.53;3.13;;;;;;;;;;1049859;28;20024;-74
2024/03/08 02:33:23;;;;;;;5.68;3.50;;;;;;;;;;1045529;28;20107;-75
2024/03/08 02:33:54;;;;;;;4.80;3.58;;;;;;;;;;1045071;28;20024;-75
2024/03/08 02:34:25;;;;;;;4.50;2.42;;;;;;;;;;1049779;28;20070;-75
2024/03/08 02:35:01;;;;;;;2.83;2.50;;;;;;;;;;1051055;28;20028;-74
2024/03/08 02:35:32;;;;;;;9.52;1.98;;;;;;;;;;1050313;28;20028;-75
2024/03/08 02:36:04;;;;;;;6.35;3.55;;;;;;;;;;1050188;28;20050;-74
2024/03/08 02:36:34;;;;;;;5.85;3.20;;;;;;;;;;1048723;28;20110;-74
2024/03/08 02:37:05;;;;;;;5.00;2.47;;;;;;;;;;1049271;28;20441;-74
2024/03/08 02:37:35;;;;;;;18.25;4.88;;;;;;;;;;1050339;28;20518;-75
2024/03/08 02:38:06;;;;;;;4.18;1.65;;;;;;;;;;1050464;28;20468;-75
2024/03/08 02:38:36;;;;;;;11.52;4.60;;;;;;;;;;1050702;28;20028;-75
2024/03/08 02:39:07;;;;;;;12.13;4.40;;;;;;;;;;1050041;28;20476;-74
2024/03/08 02:39:38;;;;;;;4.38;2.97;;;;;;;;;;1047084;28;20058;-76
2024/03/08 02:40:08;;;;;;;3.42;2.38;;;;;;;;;;1047888;28;20031;-75
2024/03/08 02:40:39;;;;;;;4.43;3.53;;;;;;;;;;1047750;28;20040;-75
2024/03/08 02:41:10;;;;;;;6.82;3.58;;;;;;;;;;1049933;28;20406;-74
2024/03/08 02:41:42;;;;;;;15.75;4.75;;;;;;;;;;1045894;28;20488;-75
2024/03/08 02:42:13;;;;;;;7.03;4.32;;;;;;;;;;1049847;28;20036;-74
2024/03/08 02:42:43;;;;;;;15.60;4.10;;;;;;;;;;1044827;28;20400;-74
2024/03/08 02:43:15;;;;;;;10.93;6.40;;;;;;;;;;1047108;28;20142;-75
2024/03/08 02:43:45;;;;;;;5.13;3.80;;;;;;;;;;1049874;28;20008;-75
2024/03/08 02:44:16;;;;;;;7.18;4.32;;;;;;;;;;1049606;28;20021;-75
2024/03/08 02:44:46;;;;;;;8.75;5.75;;;;;;;;;;1050413;28;20036;-74
2024/03/08 02:45:17;;;;;;;8.10;4.95;;;;;;;;;;1050034;28;20047;-74
2024/03/08 02:45:47;;;;;;;2.97;2.47;;;;;;;;;;1050372;28;20114;-75
2024/03/08 02:46:18;;;;;;;14.10;3.28;;;;;;;;;;1050004;28;20020;-75
2024/03/08 02:46:50;;;;;;;13.15;4.03;;;;;;;;;;1049892;28;20123;-74
2024/03/08 02:47:20;;;;;;;5.32;3.00;;;;;;;;;;1049627;28;20009;-74
2024/03/08 02:47:51;;;;;;;4.97;2.80;;;;;;;;;;1050701;28;20378;-75
2024/03/08 02:48:22;;;;;;;15.98;7.30;;;;;;;;;;1048950;28;20588;-74
2024/03/08 02:48:52;;;;;;;4.10;2.53;;;;;;;;;;1050514;28;20024;-74
2024/03/08 02:49:23;;;;;;;9.35;2.42;;;;;;;;;;1044858;28;20030;-74
2024/03/08 02:49:53;;;;;;;9.32;3.70;;;;;;;;;;1044775;28;20031;-74
2024/03/08 02:50:25;;;;;;;2.35;2.13;;;;;;;;;;1045520;28;20118;-74
2024/03/08 02:50:55;;;;;;;4.35;2.42;;;;;;;;;;1050921;28;20020;-74
2024/03/08 02:51:26;;;;;;;2.30;1.08;;;;;;;;;;1049820;28;20024;-74
2024/03/08 02:51:57;;;;;;;7.45;2.30;;;;;;;;;;1049482;28;20025;-74
2024/03/08 02:52:27;;;;;;;2.15;1.98;;;;;;;;;;1049805;28;20018;-75
2024/03/08 02:52:57;;;;;;;1.45;1.08;;;;;;;;;;1047729;28;20017;-75
2024/03/08 02:53:28;;;;;;;1.33;1.23;;;;;;;;;;1043675;28;20025;-75
2024/03/08 02:53:58;;;;;;;2.65;2.05;;;;;;;;;;1043941;28;20388;-74
2024/03/08 02:54:29;;;;;;;8.10;1.15;;;;;;;;;;1043759;28;20112;-74
2024/03/08 02:54:59;;;;;;;2.20;2.05;;;;;;;;;;1046084;28;20024;-74
2024/03/08 02:55:30;;;;;;;9.90;2.63;;;;;;;;;;1044933;28;20057;-75
2024/03/08 02:56:00;;;;;;;3.20;1.48;;;;;;;;;;1045612;28;20062;-75
2024/03/08 02:56:34;;;;;;;1.52;1.38;;;;;;;;;;1049772;28;20521;-74
2024/03/08 02:57:07;;;;;;;6.25;3.83;;;;;;;;;;1049591;28;20064;-74
2024/03/08 02:57:37;;;;;;;1.23;1.15;;;;;;;;;;1049934;28;20023;-74
2024/03/08 02:58:10;;;;;;;1.55;1.45;;;;;;;;;;1050478;28;20024;-74
2024/03/08 02:58:41;;;;;;;2.78;2.33;;;;;;;;;;1048864;28;20081;-74
2024/03/08 02:59:12;;;;;;;1.75;1.65;;;;;;;;;;1049588;28;20028;-74
2024/03/08 02:59:43;;;;;;;4.00;1.80;;;;;;;;;;1049840;28;20032;-74
2024/03/08 03:00:13;;;;;;;24.88;4.22;;;;;;;;;;1050081;28;20372;-74
2024/03/08 03:00:44;;;;;;;4.93;3.63;;;;;;;;;;1050019;28;20503;-74
2024/03/08 03:01:15;;;;;;;14.48;3.35;;;;;;;;;;1048574;28;20098;-74
2024/03/08 03:01:45;;;;;;;2.50;2.30;;;;;;;;;;1049904;28;20025;-74
2024/03/08 03:02:16;;;;;;;0.93;0.93;;;;;;;;;;1047559;28;20100;-75
2024/03/08 03:02:47;;;;;;;4.97;3.75;;;;;;;;;;1046005;28;20020;-75
2024/03/08 03:03:17;;;;;;;3.00;1.45;;;;;;;;;;1045835;28;20027;-74
2024/03/08 03:03:47;;;;;;;3.95;3.55;;;;;;;;;;1045680;28;20024;-75
2024/03/08 03:04:18;;;;;;;6.43;3.35;;;;;;;;;;1050620;28;20103;-74
2024/03/08 03:04:48;;;;;;;2.22;2.00;;;;;;;;;;1050432;28;20037;-74
2024/03/08 03:05:22;;;;;;;1.27;1.20;;;;;;;;;;1049364;28;20443;-74
2024/03/08 03:05:55;;;;;;;5.68;2.65;;;;;;;;;;1049441;28;20031;-74